createdAt,value
2023-03-24T00:00:31.622Z,7.14
2023-03-24T00:03:03.389Z,7.11
2023-03-24T00:05:31.114Z,7.04
2023-03-24T00:08:02.131Z,7.03
2023-03-24T00:10:35.066Z,6.93
2023-03-24T00:13:02.444Z,6.95
2023-03-24T00:15:29.590Z,6.90
2023-03-24T00:17:58.516Z,6.87
2023-03-24T00:20:27.357Z,6.81
2023-03-24T00:22:59.328Z,6.73
2023-03-24T00:25:36.686Z,6.70
2023-03-24T00:28:07.469Z,6.69
2023-03-24T00:30:35.626Z,6.63
2023-03-24T00:33:03.318Z,6.59
2023-03-24T00:35:30.419Z,6.52
2023-03-24T00:37:57.575Z,6.52
2023-03-24T00:40:25.299Z,6.51
2023-03-24T00:42:52.285Z,6.53
2023-03-24T00:45:23.671Z,6.52
2023-03-24T00:47:54.653Z,6.52
2023-03-24T00:50:33.753Z,6.50
2023-03-24T00:53:02.302Z,6.52
2023-03-24T00:55:29.416Z,6.49
2023-03-24T00:57:56.482Z,6.53
2023-03-24T01:00:26.396Z,6.50
2023-03-24T01:02:57.231Z,6.48
2023-03-24T01:05:29.295Z,6.48
2023-03-24T01:07:59.277Z,6.45
2023-03-24T01:10:27.255Z,6.49
2023-03-24T01:12:58.420Z,6.48
2023-03-24T01:15:29.911Z,6.42
2023-03-24T01:17:57.967Z,6.42
2023-03-24T01:20:26.034Z,6.40
2023-03-24T01:22:53.564Z,6.43
2023-03-24T01:25:23.525Z,6.41
2023-03-24T01:27:52.891Z,6.40
2023-03-24T01:30:24.874Z,6.38
2023-03-24T01:32:53.522Z,6.38
2023-03-24T01:35:22.772Z,6.38
2023-03-24T01:37:50.117Z,6.35
2023-03-24T01:40:28.323Z,6.33
2023-03-24T01:42:55.717Z,6.32
2023-03-24T01:46:19.823Z,6.31
2023-03-24T01:48:51.203Z,6.26
2023-03-24T01:51:35.749Z,6.28
2023-03-24T01:54:07.582Z,6.28
2023-03-24T01:56:39.401Z,6.25
2023-03-24T01:59:13.189Z,6.26
2023-03-24T02:01:40.374Z,6.25
2023-03-24T02:04:09.261Z,6.21
2023-03-24T02:06:41.566Z,6.22
2023-03-24T02:09:10.687Z,6.20
2023-03-24T02:11:39.548Z,6.18
2023-03-24T02:14:08.924Z,6.23
2023-03-24T02:16:52.474Z,6.21
2023-03-24T02:19:38.801Z,6.22
2023-03-24T02:22:11.342Z,6.21
2023-03-24T02:24:59.783Z,6.21
2023-03-24T02:28:07.754Z,6.19
2023-03-24T02:30:49.035Z,6.20
2023-03-24T02:33:55.448Z,6.15
2023-03-24T02:36:38.024Z,6.17
2023-03-24T02:39:38.368Z,6.14
2023-03-24T02:42:29.060Z,6.15
2023-03-24T02:45:22.854Z,6.08
2023-03-24T02:48:23.199Z,6.10
2023-03-24T02:51:02.076Z,6.14
2023-03-24T02:53:44.460Z,6.15
2023-03-24T02:56:30.305Z,6.14
2023-03-24T02:59:04.763Z,6.15
2023-03-24T03:01:41.577Z,6.11
2023-03-24T03:04:23.476Z,6.09
2023-03-24T03:06:57.752Z,6.05
2023-03-24T03:09:28.214Z,6.02
2023-03-24T03:11:58.413Z,6.04
2023-03-24T03:14:49.880Z,5.96
2023-03-24T03:17:30.910Z,5.98
2023-03-24T03:20:08.386Z,5.92
2023-03-24T03:22:49.923Z,5.96
2023-03-24T03:25:23.401Z,5.98
2023-03-24T03:27:54.021Z,5.95
2023-03-24T03:30:40.297Z,5.94
2023-03-24T03:33:18.470Z,5.92
2023-03-24T03:36:11.779Z,5.89
2023-03-24T03:38:48.193Z,5.91
2023-03-24T03:41:18.608Z,5.88
2023-03-24T03:43:48.396Z,5.86
2023-03-24T03:46:17.249Z,5.84
2023-03-24T03:48:45.744Z,5.86
2023-03-24T03:51:14.680Z,5.80
2023-03-24T03:53:58.726Z,5.83
2023-03-24T03:56:30.136Z,5.78
2023-03-24T03:58:58.459Z,5.80
2023-03-24T04:01:30.445Z,5.80
2023-03-24T04:04:40.497Z,5.77
2023-03-24T04:07:28.580Z,5.79
2023-03-24T04:10:57.589Z,5.80
2023-03-24T04:13:42.947Z,5.82
2023-03-24T04:16:40.509Z,5.78
2023-03-24T04:19:35.245Z,5.80
2023-03-24T04:22:20.115Z,5.80
2023-03-24T04:25:20.338Z,5.83
2023-03-24T04:28:01.374Z,5.89
2023-03-24T04:30:50.871Z,5.93
2023-03-24T04:33:29.279Z,6.01
2023-03-24T04:36:29.577Z,5.97
2023-03-24T04:38:58.212Z,6.01
2023-03-24T04:41:28.068Z,6.02
2023-03-24T04:43:58.143Z,6.04
2023-03-24T04:46:26.274Z,6.02
2023-03-24T04:48:53.201Z,6.01
2023-03-24T04:51:21.305Z,6.01
2023-03-24T04:53:49.156Z,6.00
2023-03-24T04:56:40.691Z,5.95
2023-03-24T04:59:07.685Z,5.97
2023-03-24T05:01:37.726Z,5.98
2023-03-24T05:04:06.117Z,6.08
2023-03-24T05:06:33.535Z,6.08
2023-03-24T05:09:00.537Z,6.12
2023-03-24T05:11:28.717Z,6.18
2023-03-24T05:13:55.833Z,6.17
2023-03-24T05:16:22.798Z,6.20
2023-03-24T05:18:49.757Z,6.21
2023-03-24T05:21:16.699Z,6.27
2023-03-24T05:23:43.642Z,6.36
2023-03-24T05:26:10.553Z,6.32
2023-03-24T05:28:37.525Z,6.33
2023-03-24T05:31:04.534Z,6.29
2023-03-24T05:33:32.762Z,6.24
2023-03-24T05:36:00.203Z,6.20
2023-03-24T05:38:27.217Z,6.17
2023-03-24T05:41:01.084Z,6.12
2023-03-24T05:43:28.727Z,6.09
2023-03-24T05:45:56.532Z,6.09
2023-03-24T05:48:23.776Z,6.03
2023-03-24T05:50:53.255Z,6.03
2023-03-24T05:53:21.095Z,6.01
2023-03-24T05:55:48.063Z,6.00
2023-03-24T05:58:16.000Z,6.03
2023-03-24T06:00:42.901Z,6.03
2023-03-24T06:03:09.917Z,6.02
2023-03-24T06:05:37.360Z,6.01
2023-03-24T06:08:04.591Z,6.04
2023-03-24T06:10:31.705Z,6.04
2023-03-24T06:12:58.615Z,6.11
2023-03-24T06:15:28.262Z,6.15
2023-03-24T06:17:55.685Z,6.12
2023-03-24T06:20:22.637Z,6.13
2023-03-24T06:22:49.992Z,6.12
2023-03-24T06:25:20.760Z,6.22
2023-03-24T06:27:47.683Z,6.29
2023-03-24T06:30:17.923Z,6.36
2023-03-24T06:32:48.799Z,6.42
2023-03-24T06:35:17.920Z,6.51
2023-03-24T06:37:45.588Z,6.57
2023-03-24T06:40:16.111Z,6.59
2023-03-24T06:42:43.132Z,6.70
2023-03-24T06:45:10.739Z,6.79
2023-03-24T06:47:38.075Z,6.86
2023-03-24T06:50:07.355Z,6.92
2023-03-24T06:52:35.813Z,6.88
2023-03-24T06:55:03.711Z,6.91
2023-03-24T06:57:31.084Z,6.94
2023-03-24T06:59:58.095Z,6.96
2023-03-24T07:02:25.513Z,6.95
2023-03-24T07:04:54.383Z,6.95
2023-03-24T07:07:57.046Z,6.98
2023-03-24T07:10:10.880Z,7.06
2023-03-24T07:12:37.853Z,7.14
2023-03-24T07:15:07.488Z,7.20
2023-03-24T07:17:34.931Z,7.26
2023-03-24T07:20:02.095Z,7.36
2023-03-24T07:22:29.078Z,7.36
2023-03-24T07:24:58.342Z,7.49
2023-03-24T07:27:25.285Z,7.60
2023-03-24T07:29:52.229Z,7.73
2023-03-24T07:32:19.860Z,7.89
2023-03-24T07:34:47.375Z,7.99
2023-03-24T07:37:14.299Z,8.14
2023-03-24T07:39:41.419Z,8.29
2023-03-24T07:42:09.470Z,8.43
2023-03-24T07:44:37.910Z,8.46
2023-03-24T07:47:05.057Z,8.59
2023-03-24T07:49:32.198Z,8.75
2023-03-24T07:51:59.406Z,8.86
2023-03-24T07:54:27.526Z,8.81
2023-03-24T07:56:54.474Z,8.92
2023-03-24T07:59:21.836Z,8.87
2023-03-24T08:03:21.496Z,8.86
2023-03-24T08:04:37.508Z,8.85
2023-03-24T08:07:05.609Z,8.78
2023-03-24T08:09:32.568Z,8.73
2023-03-24T08:12:06.905Z,8.61
2023-03-24T08:14:40.674Z,8.65
2023-03-24T08:17:07.728Z,8.63
2023-03-24T08:19:35.313Z,8.64
2023-03-24T08:22:04.403Z,8.61
2023-03-24T08:24:31.706Z,8.61
2023-03-24T08:27:03.002Z,8.56
2023-03-24T08:29:30.301Z,8.57
2023-03-24T08:31:57.210Z,8.54
2023-03-24T08:34:25.267Z,8.55
2023-03-24T08:36:52.219Z,8.72
2023-03-24T08:39:20.517Z,8.85
2023-03-24T08:41:47.622Z,8.94
2023-03-24T08:44:14.528Z,9.14
2023-03-24T08:46:41.514Z,9.33
2023-03-24T08:49:09.048Z,9.61
2023-03-24T08:51:36.076Z,9.76
2023-03-24T08:54:04.030Z,9.98
2023-03-24T08:56:31.110Z,10.15
2023-03-24T08:58:58.210Z,10.33
2023-03-24T09:01:25.831Z,10.47
2023-03-24T09:03:53.507Z,10.59
2023-03-24T09:06:20.624Z,10.82
2023-03-24T09:08:47.780Z,11.07
2023-03-24T09:11:21.323Z,11.28
2023-03-24T09:13:49.107Z,11.42
2023-03-24T09:16:17.192Z,11.57
2023-03-24T09:18:44.977Z,11.62
2023-03-24T09:21:12.405Z,11.56
2023-03-24T09:23:39.590Z,11.56
2023-03-24T09:26:07.692Z,11.46
2023-03-24T09:28:35.023Z,11.44
2023-03-24T09:31:06.252Z,11.30
2023-03-24T09:33:37.448Z,11.28
2023-03-24T09:36:05.401Z,11.28
2023-03-24T09:38:33.840Z,11.26
2023-03-24T09:41:03.312Z,11.18
2023-03-24T09:43:52.974Z,11.06
2023-03-24T09:46:45.988Z,11.01
2023-03-24T09:49:24.241Z,11.02
2023-03-24T09:52:00.660Z,10.93
2023-03-24T09:54:36.866Z,10.94
2023-03-24T09:57:05.231Z,10.97
2023-03-24T09:59:39.344Z,11.00
2023-03-24T10:02:21.748Z,11.00
2023-03-24T10:04:50.243Z,10.96
2023-03-24T10:07:47.203Z,10.93
2023-03-24T10:10:57.969Z,11.00
2023-03-24T10:13:37.161Z,11.00
2023-03-24T10:16:27.284Z,11.06
2023-03-24T10:19:21.217Z,11.20
2023-03-24T10:22:13.192Z,11.27
2023-03-24T10:24:54.937Z,11.40
2023-03-24T10:27:36.474Z,11.44
2023-03-24T10:30:17.628Z,11.51
2023-03-24T10:32:45.660Z,11.60
2023-03-24T10:35:23.110Z,11.67
2023-03-24T10:37:52.607Z,11.88
2023-03-24T10:40:27.345Z,12.08
2023-03-24T10:43:07.173Z,12.16
2023-03-24T10:45:45.032Z,12.28
2023-03-24T10:48:15.050Z,12.50
2023-03-24T10:50:45.529Z,12.72
2023-03-24T10:53:19.433Z,12.99
2023-03-24T10:55:48.293Z,13.16
2023-03-24T10:58:37.033Z,13.13
2023-03-24T11:01:23.118Z,13.07
2023-03-24T11:03:51.335Z,13.05
2023-03-24T11:06:21.868Z,13.11
2023-03-24T11:09:11.908Z,13.11
2023-03-24T11:11:38.891Z,13.06
2023-03-24T11:14:26.182Z,12.99
2023-03-24T11:17:10.897Z,12.95
2023-03-24T11:19:38.181Z,13.01
2023-03-24T11:22:07.633Z,13.09
2023-03-24T11:24:38.797Z,13.10
2023-03-24T11:27:06.315Z,13.12
2023-03-24T11:29:39.045Z,13.08
2023-03-24T11:32:15.174Z,12.98
2023-03-24T11:34:49.196Z,13.03
2023-03-24T11:37:24.106Z,12.98
2023-03-24T11:40:26.086Z,13.06
2023-03-24T11:43:00.593Z,13.00
2023-03-24T11:45:41.248Z,12.96
2023-03-24T11:48:41.987Z,12.68
2023-03-24T11:51:12.958Z,12.47
2023-03-24T11:53:48.777Z,12.42
2023-03-24T11:56:46.156Z,12.42
2023-03-24T11:59:31.725Z,12.47
2023-03-24T12:02:25.697Z,12.40
2023-03-24T12:05:17.156Z,12.35
2023-03-24T12:08:04.931Z,12.06
2023-03-24T12:11:04.295Z,11.26
2023-03-24T12:13:37.770Z,10.53
2023-03-24T12:16:40.123Z,10.00
2023-03-24T12:19:39.933Z,9.73
2023-03-24T12:22:43.764Z,9.61
2023-03-24T12:25:46.238Z,9.89
2023-03-24T12:28:51.734Z,10.24
2023-03-24T12:31:57.339Z,10.57
2023-03-24T12:35:24.379Z,10.86
2023-03-24T12:38:17.383Z,11.02
2023-03-24T12:41:04.380Z,11.26
2023-03-24T12:43:57.303Z,11.41
2023-03-24T12:46:26.302Z,11.59
2023-03-24T12:49:00.154Z,11.68
2023-03-24T12:52:05.586Z,11.78
2023-03-24T12:55:06.476Z,11.81
2023-03-24T12:58:05.291Z,11.75
2023-03-24T13:00:38.566Z,11.69
2023-03-24T13:03:15.088Z,11.74
2023-03-24T13:05:51.667Z,11.82
2023-03-24T13:08:32.540Z,11.90
2023-03-24T13:11:19.282Z,11.93
2023-03-24T13:13:53.886Z,11.90
2023-03-24T13:16:25.130Z,11.86
2023-03-24T13:19:00.098Z,11.87
2023-03-24T13:21:29.777Z,11.93
2023-03-24T13:24:14.303Z,11.84
2023-03-24T13:26:51.468Z,11.73
2023-03-24T13:29:48.991Z,11.42
2023-03-24T13:32:24.251Z,11.29
2023-03-24T13:35:44.326Z,11.43
2023-03-24T13:38:39.695Z,11.54
2023-03-24T13:41:12.702Z,11.84
2023-03-24T13:43:51.938Z,12.05
2023-03-24T13:46:19.243Z,12.27
2023-03-24T13:48:52.543Z,12.52
2023-03-24T13:51:27.168Z,12.63
2023-03-24T13:54:18.776Z,12.75
2023-03-24T13:56:54.523Z,12.81
2023-03-24T14:00:12.288Z,12.92
2023-03-24T14:02:50.510Z,12.95
2023-03-24T14:05:24.357Z,12.81
2023-03-24T14:08:10.497Z,12.66
2023-03-24T14:10:44.365Z,12.39
2023-03-24T14:13:14.253Z,12.31
2023-03-24T14:15:45.125Z,12.16
2023-03-24T14:18:25.213Z,12.10
2023-03-24T14:20:58.807Z,12.13
2023-03-24T14:23:49.505Z,12.21
2023-03-24T14:26:37.225Z,12.34
2023-03-24T14:29:04.820Z,12.50
2023-03-24T14:31:34.752Z,12.64
2023-03-24T14:34:21.394Z,12.82
2023-03-24T14:37:00.327Z,12.90
2023-03-24T14:39:47.445Z,12.81
2023-03-24T14:42:35.726Z,12.84
2023-03-24T14:45:07.299Z,12.89
2023-03-24T14:47:41.337Z,12.90
2023-03-24T14:50:29.935Z,12.97
2023-03-24T14:53:44.128Z,12.89
2023-03-24T14:56:16.897Z,12.90
2023-03-24T14:58:51.798Z,12.87
2023-03-24T15:01:18.848Z,12.96
2023-03-24T15:04:21.985Z,12.88
2023-03-24T15:06:49.501Z,12.89
2023-03-24T15:09:18.605Z,12.87
2023-03-24T15:11:48.633Z,12.86
2023-03-24T15:14:26.302Z,12.86
2023-03-24T15:16:58.376Z,12.88
2023-03-24T15:19:28.842Z,12.83
2023-03-24T15:22:06.608Z,12.88
2023-03-24T15:24:37.622Z,12.99
2023-03-24T15:27:04.461Z,12.99
2023-03-24T15:29:31.782Z,12.95
2023-03-24T15:31:58.840Z,12.83
2023-03-24T15:34:43.234Z,12.84
2023-03-24T15:37:24.197Z,12.85
2023-03-24T15:40:01.841Z,12.83
2023-03-24T15:42:33.616Z,12.84
2023-03-24T15:45:34.674Z,12.94
2023-03-24T15:48:13.724Z,12.91
2023-03-24T15:50:55.652Z,12.84
2023-03-24T15:53:30.428Z,12.83
2023-03-24T15:56:06.647Z,12.68
2023-03-24T15:58:47.093Z,12.54
2023-03-24T16:01:19.259Z,12.34
2023-03-24T16:03:48.658Z,12.25
2023-03-24T16:06:26.739Z,12.19
2023-03-24T16:08:53.810Z,12.17
2023-03-24T16:11:21.896Z,12.11
2023-03-24T16:13:48.785Z,11.91
2023-03-24T16:16:16.153Z,11.76
2023-03-24T16:18:49.024Z,11.68
2023-03-24T16:21:22.296Z,11.59
2023-03-24T16:23:51.948Z,11.57
2023-03-24T16:26:24.144Z,11.52
2023-03-24T16:28:53.100Z,11.49
2023-03-24T16:31:31.075Z,11.45
2023-03-24T16:33:58.556Z,11.27
2023-03-24T16:36:29.168Z,11.18
2023-03-24T16:38:58.925Z,10.97
2023-03-24T16:41:26.333Z,10.92
2023-03-24T16:43:54.224Z,10.92
2023-03-24T16:46:34.053Z,10.81
2023-03-24T16:49:03.971Z,10.87
2023-03-24T16:51:31.063Z,10.88
2023-03-24T16:53:58.538Z,10.90
2023-03-24T16:56:26.701Z,10.88
2023-03-24T16:58:54.791Z,10.89
2023-03-24T17:01:39.552Z,10.89
2023-03-24T17:04:16.548Z,10.74
2023-03-24T17:06:53.037Z,10.72
2023-03-24T17:09:21.079Z,10.63
2023-03-24T17:11:53.234Z,10.40
2023-03-24T17:14:20.309Z,10.52
2023-03-24T17:16:49.641Z,10.52
2023-03-24T17:19:20.379Z,10.48
2023-03-24T17:22:07.134Z,10.45
2023-03-24T17:24:36.880Z,10.38
2023-03-24T17:27:06.498Z,10.33
2023-03-24T17:29:33.445Z,10.24
2023-03-24T17:32:00.793Z,10.14
2023-03-24T17:34:28.731Z,10.01
2023-03-24T17:36:56.682Z,10.02
2023-03-24T17:39:24.542Z,9.85
2023-03-24T17:41:52.366Z,9.85
2023-03-24T17:44:19.588Z,9.77
2023-03-24T17:46:46.847Z,9.77
2023-03-24T17:49:13.985Z,9.75
2023-03-24T17:51:41.611Z,9.70
2023-03-24T17:54:12.154Z,9.68
2023-03-24T17:56:40.163Z,9.57
2023-03-24T17:59:07.628Z,9.46
2023-03-24T18:01:35.467Z,9.56
2023-03-24T18:04:02.593Z,9.52
2023-03-24T18:06:31.017Z,9.46
2023-03-24T18:08:58.222Z,9.45
2023-03-24T18:11:26.123Z,9.46
2023-03-24T18:13:53.078Z,9.48
2023-03-24T18:16:21.792Z,9.53
2023-03-24T18:18:51.496Z,9.49
2023-03-24T18:21:19.575Z,9.44
2023-03-24T18:23:47.270Z,9.44
2023-03-24T18:26:15.570Z,9.36
2023-03-24T18:28:44.252Z,9.37
2023-03-24T18:31:19.061Z,9.32
2023-03-24T18:33:51.321Z,9.08
2023-03-24T18:36:21.722Z,9.22
2023-03-24T18:38:49.777Z,9.24
2023-03-24T18:41:18.828Z,9.18
2023-03-24T18:43:48.486Z,9.13
2023-03-24T18:46:16.870Z,9.09
2023-03-24T18:48:44.489Z,9.02
2023-03-24T18:51:12.408Z,8.92
2023-03-24T18:53:40.239Z,8.91
2023-03-24T18:56:08.864Z,8.88
2023-03-24T18:58:38.679Z,8.89
2023-03-24T19:01:13.119Z,8.85
2023-03-24T19:03:44.680Z,8.85
2023-03-24T19:06:15.301Z,8.85
2023-03-24T19:08:46.959Z,8.84
2023-03-24T19:11:16.382Z,8.84
2023-03-24T19:13:50.400Z,8.87
2023-03-24T19:16:20.292Z,8.92
2023-03-24T19:18:48.924Z,8.98
2023-03-24T19:21:17.689Z,8.99
2023-03-24T19:23:47.281Z,8.98
2023-03-24T19:26:16.753Z,8.96
2023-03-24T19:28:44.850Z,8.93
2023-03-24T19:31:18.105Z,8.99
2023-03-24T19:33:47.662Z,8.96
2023-03-24T19:36:16.789Z,8.99
2023-03-24T19:38:45.000Z,8.95
2023-03-24T19:41:15.667Z,8.94
2023-03-24T19:43:43.525Z,8.93
2023-03-24T19:46:11.394Z,8.90
2023-03-24T19:48:38.978Z,8.94
2023-03-24T19:51:06.738Z,8.97
2023-03-24T19:53:34.328Z,9.02
2023-03-24T19:56:02.586Z,8.97
2023-03-24T19:58:30.220Z,9.05
2023-03-24T20:00:58.140Z,9.05
2023-03-24T20:03:26.262Z,9.03
2023-03-24T20:05:53.989Z,9.08
2023-03-24T20:08:24.545Z,9.03
2023-03-24T20:10:52.804Z,9.02
2023-03-24T20:13:20.497Z,9.03
2023-03-24T20:15:48.803Z,9.04
2023-03-24T20:18:16.937Z,8.97
2023-03-24T20:20:44.175Z,9.02
2023-03-24T20:23:11.585Z,8.93
2023-03-24T20:25:42.633Z,8.95
2023-03-24T20:28:09.739Z,8.89
2023-03-24T20:30:36.648Z,8.82
2023-03-24T20:33:03.728Z,8.80
2023-03-24T20:35:30.769Z,8.80
2023-03-24T20:37:57.961Z,8.79
2023-03-24T20:40:25.899Z,8.74
2023-03-24T20:42:52.850Z,8.72
2023-03-24T20:45:20.112Z,8.75
2023-03-24T20:47:47.621Z,8.73
2023-03-24T20:50:14.711Z,8.68
2023-03-24T20:52:42.673Z,8.75
2023-03-24T20:55:11.685Z,8.69
2023-03-24T20:57:38.749Z,8.70
2023-03-24T21:00:13.916Z,8.73
2023-03-24T21:02:43.508Z,8.73
2023-03-24T21:05:10.996Z,8.72
2023-03-24T21:07:38.719Z,8.70
2023-03-24T21:10:06.981Z,8.71
2023-03-24T21:12:34.741Z,8.72
2023-03-24T21:15:01.698Z,8.65
2023-03-24T21:17:32.594Z,8.66
2023-03-24T21:20:07.002Z,8.67
2023-03-24T21:22:47.622Z,8.63
2023-03-24T21:25:16.059Z,8.63
2023-03-24T21:27:43.022Z,8.54
2023-03-24T21:30:11.713Z,8.59
2023-03-24T21:32:38.923Z,8.53
2023-03-24T21:35:07.118Z,8.53
2023-03-24T21:37:34.317Z,8.53
2023-03-24T21:40:01.322Z,8.53
2023-03-24T21:42:31.027Z,8.48
2023-03-24T21:44:58.004Z,8.48
2023-03-24T21:47:25.450Z,8.40
2023-03-24T21:49:59.161Z,8.38
2023-03-24T21:52:29.066Z,8.34
2023-03-24T21:55:01.117Z,8.31
2023-03-24T21:57:28.197Z,8.33
2023-03-24T21:59:55.299Z,8.32
2023-03-24T22:02:24.648Z,8.37
2023-03-24T22:04:51.656Z,8.39
2023-03-24T22:07:18.859Z,8.37
2023-03-24T22:09:46.028Z,8.37
2023-03-24T22:12:13.125Z,8.36
2023-03-24T22:14:40.181Z,8.36
2023-03-24T22:17:08.383Z,8.35
2023-03-24T22:19:35.294Z,8.26
2023-03-24T22:22:02.430Z,8.38
2023-03-24T22:24:30.430Z,8.36
2023-03-24T22:26:59.159Z,8.39
2023-03-24T22:29:26.726Z,8.43
2023-03-24T22:31:53.817Z,8.45
2023-03-24T22:34:21.754Z,8.38
2023-03-24T22:36:48.902Z,8.37
2023-03-24T22:39:15.847Z,8.43
2023-03-24T22:41:44.129Z,8.44
2023-03-24T22:44:11.577Z,8.44
2023-03-24T22:46:38.794Z,8.47
2023-03-24T22:49:06.389Z,8.39
2023-03-24T22:51:33.477Z,8.41
2023-03-24T22:54:00.829Z,8.44
2023-03-24T22:56:27.912Z,8.35
2023-03-24T22:58:54.841Z,8.41
2023-03-24T23:01:21.757Z,8.36
2023-03-24T23:03:49.189Z,8.35
2023-03-24T23:06:16.185Z,8.35
2023-03-24T23:08:43.620Z,8.26
2023-03-24T23:11:11.765Z,8.28
2023-03-24T23:13:39.228Z,8.32
2023-03-24T23:16:07.154Z,8.36
2023-03-24T23:18:34.282Z,8.31
2023-03-24T23:21:13.677Z,8.31
2023-03-24T23:23:42.003Z,8.36
2023-03-24T23:26:26.216Z,8.32
2023-03-24T23:28:53.798Z,8.30
2023-03-24T23:31:25.366Z,8.34
2023-03-24T23:33:58.612Z,8.29
2023-03-24T23:36:28.620Z,8.36
2023-03-24T23:38:56.026Z,8.37
2023-03-24T23:41:23.604Z,8.27
2023-03-24T23:43:52.483Z,8.31
2023-03-24T23:46:20.670Z,8.32
2023-03-24T23:48:47.670Z,8.33
2023-03-24T23:51:14.611Z,8.30
2023-03-24T23:53:41.918Z,8.31
2023-03-24T23:56:12.295Z,8.24
2023-03-24T23:58:42.694Z,8.24
